Terminal Aerodrome Forecast
Issued by NWS Bismarck, ND

Home | Current Version | Previous Version | Text Only | Print | Product List | Glossary On
Versions: 1 2 3 4 5 6 7 8 9 10 11 12 13 14 15 16 17 18 19 20 21 22 23 24 25
000
FTUS43 KBIS 271700
TAFBIS
TAF
KBIS 271737Z 2718/2818 24005KT P6SM SCT080
     FM272000 24005KT P6SM FEW020 BKN080
     FM280300 36005KT P6SM -SN BKN035 OVC090
     FM280600 04007KT 5SM -SN BR OVC025=

USA.gov is the U.S. government's official web portal to all federal, state and local government web resources and services.